sensor_id;sensor_type;location;lat;lon;timestamp;P1;durP1;ratioP1;P2;durP2;ratioP2
75993;SDS011;64680;53.800;9.988;2023-02-12T00:02:13;17.85;;;8.45;;
75993;SDS011;64680;53.800;9.988;2023-02-12T00:04:39;36.47;;;10.52;;
75993;SDS011;64680;53.800;9.988;2023-02-12T00:07:05;30.70;;;9.55;;
75993;SDS011;64680;53.800;9.988;2023-02-12T00:09:31;31.92;;;9.48;;
75993;SDS011;64680;53.800;9.988;2023-02-12T00:11:56;16.45;;;7.07;;
75993;SDS011;64680;53.800;9.988;2023-02-12T00:14:22;17.95;;;7.65;;
75993;SDS011;64680;53.800;9.988;2023-02-12T00:16:47;24.23;;;8.45;;
75993;SDS011;64680;53.800;9.988;2023-02-12T00:19:13;21.75;;;9.02;;
75993;SDS011;64680;53.800;9.988;2023-02-12T00:21:38;15.65;;;6.55;;
75993;SDS011;64680;53.800;9.988;2023-02-12T00:24:04;16.60;;;7.03;;
75993;SDS011;64680;53.800;9.988;2023-02-12T00:26:30;15.88;;;6.30;;
75993;SDS011;64680;53.800;9.988;2023-02-12T00:28:56;10.73;;;5.93;;
75993;SDS011;64680;53.800;9.988;2023-02-12T00:31:26;14.43;;;5.85;;
75993;SDS011;64680;53.800;9.988;2023-02-12T00:33:53;14.38;;;6.03;;
75993;SDS011;64680;53.800;9.988;2023-02-12T00:36:20;15.30;;;6.13;;
75993;SDS011;64680;53.800;9.988;2023-02-12T00:38:49;23.23;;;7.28;;
75993;SDS011;64680;53.800;9.988;2023-02-12T00:41:16;17.65;;;7.00;;
75993;SDS011;64680;53.800;9.988;2023-02-12T00:43:42;26.08;;;8.93;;
75993;SDS011;64680;53.800;9.988;2023-02-12T00:46:07;17.23;;;7.57;;
75993;SDS011;64680;53.800;9.988;2023-02-12T00:48:34;19.10;;;8.02;;
75993;SDS011;64680;53.800;9.988;2023-02-12T00:51:00;24.63;;;9.73;;
75993;SDS011;64680;53.800;9.988;2023-02-12T00:53:26;45.78;;;10.57;;
75993;SDS011;64680;53.800;9.988;2023-02-12T00:55:52;24.67;;;8.73;;
75993;SDS011;64680;53.800;9.988;2023-02-12T00:58:17;28.73;;;9.65;;
75993;SDS011;64680;53.800;9.988;2023-02-12T01:00:43;25.77;;;10.10;;
75993;SDS011;64680;53.800;9.988;2023-02-12T01:03:09;44.58;;;10.57;;
75993;SDS011;64680;53.800;9.988;2023-02-12T01:05:34;36.10;;;10.25;;
75993;SDS011;64680;53.800;9.988;2023-02-12T01:08:02;23.42;;;9.85;;
75993;SDS011;64680;53.800;9.988;2023-02-12T01:10:28;28.42;;;8.82;;
75993;SDS011;64680;53.800;9.988;2023-02-12T01:12:55;22.88;;;8.20;;
75993;SDS011;64680;53.800;9.988;2023-02-12T01:15:21;23.38;;;8.50;;
75993;SDS011;64680;53.800;9.988;2023-02-12T01:17:47;20.73;;;8.32;;
75993;SDS011;64680;53.800;9.988;2023-02-12T01:20:15;18.88;;;7.15;;
75993;SDS011;64680;53.800;9.988;2023-02-12T01:22:42;31.75;;;8.75;;
75993;SDS011;64680;53.800;9.988;2023-02-12T01:25:08;19.73;;;7.72;;
75993;SDS011;64680;53.800;9.988;2023-02-12T01:27:34;19.23;;;8.13;;
75993;SDS011;64680;53.800;9.988;2023-02-12T01:30:00;19.83;;;7.53;;
75993;SDS011;64680;53.800;9.988;2023-02-12T01:32:26;18.65;;;7.47;;
75993;SDS011;64680;53.800;9.988;2023-02-12T01:34:51;19.63;;;7.75;;
75993;SDS011;64680;53.800;9.988;2023-02-12T01:37:17;22.63;;;8.25;;
75993;SDS011;64680;53.800;9.988;2023-02-12T01:39:42;22.27;;;8.07;;
75993;SDS011;64680;53.800;9.988;2023-02-12T01:42:12;22.67;;;8.07;;
75993;SDS011;64680;53.800;9.988;2023-02-12T01:44:42;24.95;;;8.77;;
75993;SDS011;64680;53.800;9.988;2023-02-12T01:47:11;21.83;;;9.07;;
75993;SDS011;64680;53.800;9.988;2023-02-12T01:49:42;21.55;;;8.35;;
75993;SDS011;64680;53.800;9.988;2023-02-12T01:52:13;21.30;;;8.90;;
75993;SDS011;64680;53.800;9.988;2023-02-12T01:54:40;21.67;;;9.60;;
75993;SDS011;64680;53.800;9.988;2023-02-12T01:57:07;19.67;;;7.78;;
75993;SDS011;64680;53.800;9.988;2023-02-12T01:59:34;14.15;;;7.45;;
75993;SDS011;64680;53.800;9.988;2023-02-12T02:02:01;15.68;;;6.78;;
75993;SDS011;64680;53.800;9.988;2023-02-12T02:04:28;15.00;;;5.50;;
75993;SDS011;64680;53.800;9.988;2023-02-12T02:07:08;10.35;;;4.90;;
75993;SDS011;64680;53.800;9.988;2023-02-12T02:09:36;9.23;;;3.50;;
75993;SDS011;64680;53.800;9.988;2023-02-12T02:12:07;9.43;;;3.90;;
75993;SDS011;64680;53.800;9.988;2023-02-12T02:14:52;9.60;;;4.57;;
75993;SDS011;64680;53.800;9.988;2023-02-12T02:17:23;10.45;;;5.03;;
75993;SDS011;64680;53.800;9.988;2023-02-12T02:20:11;8.77;;;3.90;;
75993;SDS011;64680;53.800;9.988;2023-02-12T02:23:01;11.43;;;3.67;;
75993;SDS011;64680;53.800;9.988;2023-02-12T02:25:35;6.95;;;3.20;;
75993;SDS011;64680;53.800;9.988;2023-02-12T02:28:21;6.88;;;3.08;;
75993;SDS011;64680;53.800;9.988;2023-02-12T02:31:19;5.78;;;2.60;;
75993;SDS011;64680;53.800;9.988;2023-02-12T02:39:35;10.30;;;3.80;;
75993;SDS011;64680;53.800;9.988;2023-02-12T02:42:15;9.90;;;4.88;;
75993;SDS011;64680;53.800;9.988;2023-02-12T02:48:05;15.45;;;6.35;;
75993;SDS011;64680;53.800;9.988;2023-02-12T02:50:22;13.65;;;5.88;;
75993;SDS011;64680;53.800;9.988;2023-02-12T02:52:55;13.98;;;6.47;;
75993;SDS011;64680;53.800;9.988;2023-02-12T02:55:37;11.55;;;6.10;;
75993;SDS011;64680;53.800;9.988;2023-02-12T02:58:40;15.13;;;7.07;;
75993;SDS011;64680;53.800;9.988;2023-02-12T03:01:13;16.48;;;7.40;;
75993;SDS011;64680;53.800;9.988;2023-02-12T03:06:49;16.90;;;7.65;;
75993;SDS011;64680;53.800;9.988;2023-02-12T03:09:25;21.92;;;8.70;;
75993;SDS011;64680;53.800;9.988;2023-02-12T03:11:58;36.83;;;11.82;;
75993;SDS011;64680;53.800;9.988;2023-02-12T03:14:30;26.85;;;9.93;;
75993;SDS011;64680;53.800;9.988;2023-02-12T03:17:06;23.45;;;9.82;;
75993;SDS011;64680;53.800;9.988;2023-02-12T03:19:36;23.25;;;8.63;;
75993;SDS011;64680;53.800;9.988;2023-02-12T03:22:13;31.58;;;11.25;;
75993;SDS011;64680;53.800;9.988;2023-02-12T03:24:43;45.67;;;12.85;;
75993;SDS011;64680;53.800;9.988;2023-02-12T03:27:16;27.55;;;10.32;;
75993;SDS011;64680;53.800;9.988;2023-02-12T03:29:45;26.05;;;10.93;;
75993;SDS011;64680;53.800;9.988;2023-02-12T03:32:14;34.25;;;10.43;;
75993;SDS011;64680;53.800;9.988;2023-02-12T03:35:13;23.15;;;8.88;;
75993;SDS011;64680;53.800;9.988;2023-02-12T03:38:02;24.80;;;8.25;;
75993;SDS011;64680;53.800;9.988;2023-02-12T03:40:34;17.00;;;7.10;;
75993;SDS011;64680;53.800;9.988;2023-02-12T03:43:24;18.77;;;6.47;;
75993;SDS011;64680;53.800;9.988;2023-02-12T03:45:57;18.25;;;6.10;;
75993;SDS011;64680;53.800;9.988;2023-02-12T03:48:40;14.43;;;5.78;;
75993;SDS011;64680;53.800;9.988;2023-02-12T03:51:22;23.30;;;6.50;;
75993;SDS011;64680;53.800;9.988;2023-02-12T03:53:48;22.95;;;6.70;;
75993;SDS011;64680;53.800;9.988;2023-02-12T03:56:18;15.25;;;5.72;;
75993;SDS011;64680;53.800;9.988;2023-02-12T03:58:47;19.17;;;5.85;;
75993;SDS011;64680;53.800;9.988;2023-02-12T04:01:13;23.60;;;7.57;;
75993;SDS011;64680;53.800;9.988;2023-02-12T04:03:38;21.75;;;6.45;;
75993;SDS011;64680;53.800;9.988;2023-02-12T04:06:15;21.30;;;7.10;;
75993;SDS011;64680;53.800;9.988;2023-02-12T04:08:50;23.13;;;8.10;;
75993;SDS011;64680;53.800;9.988;2023-02-12T04:14:17;23.67;;;8.38;;
75993;SDS011;64680;53.800;9.988;2023-02-12T04:17:31;21.10;;;6.93;;
75993;SDS011;64680;53.800;9.988;2023-02-12T04:28:15;25.08;;;8.23;;
75993;SDS011;64680;53.800;9.988;2023-02-12T04:30:58;19.20;;;7.82;;
75993;SDS011;64680;53.800;9.988;2023-02-12T04:36:44;16.85;;;6.28;;
75993;SDS011;64680;53.800;9.988;2023-02-12T04:39:31;18.80;;;7.00;;
75993;SDS011;64680;53.800;9.988;2023-02-12T04:42:01;15.02;;;6.00;;
75993;SDS011;64680;53.800;9.988;2023-02-12T04:44:30;14.75;;;6.13;;
75993;SDS011;64680;53.800;9.988;2023-02-12T04:46:57;17.23;;;6.40;;
75993;SDS011;64680;53.800;9.988;2023-02-12T04:49:23;14.77;;;5.40;;
75993;SDS011;64680;53.800;9.988;2023-02-12T04:51:49;13.43;;;5.75;;
75993;SDS011;64680;53.800;9.988;2023-02-12T04:54:15;24.70;;;5.80;;
75993;SDS011;64680;53.800;9.988;2023-02-12T04:56:42;14.07;;;5.40;;
75993;SDS011;64680;53.800;9.988;2023-02-12T04:59:08;14.02;;;5.22;;
75993;SDS011;64680;53.800;9.988;2023-02-12T05:01:35;10.82;;;4.05;;
75993;SDS011;64680;53.800;9.988;2023-02-12T05:04:01;17.95;;;4.70;;
75993;SDS011;64680;53.800;9.988;2023-02-12T05:06:28;11.60;;;4.20;;
75993;SDS011;64680;53.800;9.988;2023-02-12T05:08:54;10.27;;;3.80;;
75993;SDS011;64680;53.800;9.988;2023-02-12T05:11:20;10.65;;;4.30;;
75993;SDS011;64680;53.800;9.988;2023-02-12T05:13:49;11.40;;;3.75;;
75993;SDS011;64680;53.800;9.988;2023-02-12T05:16:16;11.35;;;4.38;;
75993;SDS011;64680;53.800;9.988;2023-02-12T05:18:42;15.20;;;4.97;;
75993;SDS011;64680;53.800;9.988;2023-02-12T05:21:07;13.07;;;4.68;;
75993;SDS011;64680;53.800;9.988;2023-02-12T05:23:34;19.23;;;5.60;;
75993;SDS011;64680;53.800;9.988;2023-02-12T05:26:02;14.18;;;5.07;;
75993;SDS011;64680;53.800;9.988;2023-02-12T05:28:30;18.60;;;5.53;;
75993;SDS011;64680;53.800;9.988;2023-02-12T05:31:00;13.00;;;4.53;;
75993;SDS011;64680;53.800;9.988;2023-02-12T05:33:27;14.32;;;5.30;;
75993;SDS011;64680;53.800;9.988;2023-02-12T05:35:52;20.15;;;5.68;;
75993;SDS011;64680;53.800;9.988;2023-02-12T05:38:19;20.98;;;6.45;;
75993;SDS011;64680;53.800;9.988;2023-02-12T05:40:45;14.02;;;5.35;;
75993;SDS011;64680;53.800;9.988;2023-02-12T05:43:11;13.23;;;5.32;;
75993;SDS011;64680;53.800;9.988;2023-02-12T05:45:36;14.55;;;5.22;;
75993;SDS011;64680;53.800;9.988;2023-02-12T05:48:05;14.02;;;5.57;;
75993;SDS011;64680;53.800;9.988;2023-02-12T05:50:31;12.50;;;4.93;;
75993;SDS011;64680;53.800;9.988;2023-02-12T05:52:58;14.32;;;4.88;;
75993;SDS011;64680;53.800;9.988;2023-02-12T05:55:25;14.27;;;4.97;;
75993;SDS011;64680;53.800;9.988;2023-02-12T05:57:51;24.17;;;6.30;;
75993;SDS011;64680;53.800;9.988;2023-02-12T06:00:16;15.38;;;5.30;;
75993;SDS011;64680;53.800;9.988;2023-02-12T06:02:42;19.85;;;6.32;;
75993;SDS011;64680;53.800;9.988;2023-02-12T06:05:08;15.05;;;5.47;;
75993;SDS011;64680;53.800;9.988;2023-02-12T06:07:33;18.98;;;6.75;;
75993;SDS011;64680;53.800;9.988;2023-02-12T06:09:59;23.70;;;6.25;;
75993;SDS011;64680;53.800;9.988;2023-02-12T06:12:24;18.50;;;5.90;;
75993;SDS011;64680;53.800;9.988;2023-02-12T06:14:50;15.98;;;5.68;;
75993;SDS011;64680;53.800;9.988;2023-02-12T06:17:15;17.52;;;7.05;;
75993;SDS011;64680;53.800;9.988;2023-02-12T06:19:41;17.02;;;6.18;;
75993;SDS011;64680;53.800;9.988;2023-02-12T06:22:07;18.08;;;6.75;;
75993;SDS011;64680;53.800;9.988;2023-02-12T06:24:32;16.08;;;6.65;;
75993;SDS011;64680;53.800;9.988;2023-02-12T06:26:58;15.80;;;6.05;;
75993;SDS011;64680;53.800;9.988;2023-02-12T06:29:24;19.55;;;6.85;;
75993;SDS011;64680;53.800;9.988;2023-02-12T06:31:49;24.02;;;7.32;;
75993;SDS011;64680;53.800;9.988;2023-02-12T06:34:15;19.50;;;7.18;;
75993;SDS011;64680;53.800;9.988;2023-02-12T06:36:42;26.13;;;7.07;;
75993;SDS011;64680;53.800;9.988;2023-02-12T06:39:09;25.73;;;7.45;;
75993;SDS011;64680;53.800;9.988;2023-02-12T06:41:36;23.20;;;7.68;;
75993;SDS011;64680;53.800;9.988;2023-02-12T06:44:02;51.10;;;8.50;;
75993;SDS011;64680;53.800;9.988;2023-02-12T06:46:28;28.77;;;8.35;;
75993;SDS011;64680;53.800;9.988;2023-02-12T06:48:54;21.08;;;6.18;;
75993;SDS011;64680;53.800;9.988;2023-02-12T06:51:21;18.17;;;6.00;;
75993;SDS011;64680;53.800;9.988;2023-02-12T06:53:47;35.33;;;7.07;;
75993;SDS011;64680;53.800;9.988;2023-02-12T06:56:15;23.02;;;6.97;;
75993;SDS011;64680;53.800;9.988;2023-02-12T06:58:42;23.98;;;6.43;;
75993;SDS011;64680;53.800;9.988;2023-02-12T07:03:38;28.75;;;7.35;;
75993;SDS011;64680;53.800;9.988;2023-02-12T07:06:04;21.92;;;6.75;;
75993;SDS011;64680;53.800;9.988;2023-02-12T07:08:30;24.40;;;8.18;;
75993;SDS011;64680;53.800;9.988;2023-02-12T07:10:56;19.65;;;6.57;;
75993;SDS011;64680;53.800;9.988;2023-02-12T07:13:21;35.05;;;8.13;;
75993;SDS011;64680;53.800;9.988;2023-02-12T07:15:47;22.48;;;7.47;;
75993;SDS011;64680;53.800;9.988;2023-02-12T07:18:13;24.67;;;7.80;;
75993;SDS011;64680;53.800;9.988;2023-02-12T07:20:38;24.17;;;7.28;;
75993;SDS011;64680;53.800;9.988;2023-02-12T07:23:04;25.60;;;8.68;;
75993;SDS011;64680;53.800;9.988;2023-02-12T07:25:29;34.45;;;8.77;;
75993;SDS011;64680;53.800;9.988;2023-02-12T07:27:55;37.70;;;8.95;;
75993;SDS011;64680;53.800;9.988;2023-02-12T07:30:20;26.42;;;8.25;;
75993;SDS011;64680;53.800;9.988;2023-02-12T07:32:46;27.58;;;7.75;;
75993;SDS011;64680;53.800;9.988;2023-02-12T07:35:12;27.02;;;7.90;;
75993;SDS011;64680;53.800;9.988;2023-02-12T07:37:37;31.52;;;8.80;;
75993;SDS011;64680;53.800;9.988;2023-02-12T07:40:03;25.90;;;7.45;;
75993;SDS011;64680;53.800;9.988;2023-02-12T07:42:30;24.35;;;7.90;;
75993;SDS011;64680;53.800;9.988;2023-02-12T07:44:56;26.45;;;7.85;;
75993;SDS011;64680;53.800;9.988;2023-02-12T07:47:22;34.70;;;10.18;;
75993;SDS011;64680;53.800;9.988;2023-02-12T07:49:47;27.42;;;8.57;;
75993;SDS011;64680;53.800;9.988;2023-02-12T07:52:13;29.20;;;8.98;;
75993;SDS011;64680;53.800;9.988;2023-02-12T07:54:40;27.65;;;8.68;;
75993;SDS011;64680;53.800;9.988;2023-02-12T07:57:05;27.70;;;9.07;;
75993;SDS011;64680;53.800;9.988;2023-02-12T07:59:31;29.80;;;8.93;;
75993;SDS011;64680;53.800;9.988;2023-02-12T08:01:56;23.58;;;7.55;;
75993;SDS011;64680;53.800;9.988;2023-02-12T08:04:25;46.13;;;10.48;;
75993;SDS011;64680;53.800;9.988;2023-02-12T08:06:52;39.05;;;10.48;;
75993;SDS011;64680;53.800;9.988;2023-02-12T08:11:46;33.60;;;9.38;;
75993;SDS011;64680;53.800;9.988;2023-02-12T08:14:13;29.08;;;8.93;;
75993;SDS011;64680;53.800;9.988;2023-02-12T08:16:41;28.38;;;9.10;;
75993;SDS011;64680;53.800;9.988;2023-02-12T08:19:08;36.15;;;10.32;;
75993;SDS011;64680;53.800;9.988;2023-02-12T08:21:34;51.58;;;11.43;;
75993;SDS011;64680;53.800;9.988;2023-02-12T08:24:00;27.92;;;8.73;;
75993;SDS011;64680;53.800;9.988;2023-02-12T08:26:27;27.38;;;7.93;;
75993;SDS011;64680;53.800;9.988;2023-02-12T08:28:58;27.67;;;8.35;;
75993;SDS011;64680;53.800;9.988;2023-02-12T08:31:27;31.35;;;9.65;;
75993;SDS011;64680;53.800;9.988;2023-02-12T08:33:57;25.95;;;7.78;;
75993;SDS011;64680;53.800;9.988;2023-02-12T08:36:28;38.25;;;9.55;;
75993;SDS011;64680;53.800;9.988;2023-02-12T08:38:58;30.15;;;9.02;;
75993;SDS011;64680;53.800;9.988;2023-02-12T08:41:25;25.13;;;8.27;;
75993;SDS011;64680;53.800;9.988;2023-02-12T08:43:52;26.58;;;7.45;;
75993;SDS011;64680;53.800;9.988;2023-02-12T08:46:21;25.50;;;7.88;;
75993;SDS011;64680;53.800;9.988;2023-02-12T08:48:51;22.05;;;6.40;;
75993;SDS011;64680;53.800;9.988;2023-02-12T08:51:19;23.35;;;6.50;;
75993;SDS011;64680;53.800;9.988;2023-02-12T08:53:47;25.20;;;7.00;;
75993;SDS011;64680;53.800;9.988;2023-02-12T08:56:16;22.40;;;6.18;;
75993;SDS011;64680;53.800;9.988;2023-02-12T08:58:42;21.10;;;6.18;;
75993;SDS011;64680;53.800;9.988;2023-02-12T09:01:09;23.48;;;7.03;;
75993;SDS011;64680;53.800;9.988;2023-02-12T09:03:43;22.20;;;7.43;;
75993;SDS011;64680;53.800;9.988;2023-02-12T09:06:09;31.55;;;8.20;;
75993;SDS011;64680;53.800;9.988;2023-02-12T09:08:36;24.52;;;7.47;;
75993;SDS011;64680;53.800;9.988;2023-02-12T09:11:03;28.02;;;7.68;;
75993;SDS011;64680;53.800;9.988;2023-02-12T09:15:58;23.40;;;6.75;;
75993;SDS011;64680;53.800;9.988;2023-02-12T09:18:26;28.40;;;7.82;;
75993;SDS011;64680;53.800;9.988;2023-02-12T09:20:52;27.80;;;7.90;;
75993;SDS011;64680;53.800;9.988;2023-02-12T09:23:17;26.13;;;8.25;;
75993;SDS011;64680;53.800;9.988;2023-02-12T09:25:43;36.83;;;9.48;;
75993;SDS011;64680;53.800;9.988;2023-02-12T09:28:11;21.95;;;7.40;;
75993;SDS011;64680;53.800;9.988;2023-02-12T09:30:38;24.25;;;7.55;;
75993;SDS011;64680;53.800;9.988;2023-02-12T09:33:05;27.35;;;7.38;;
75993;SDS011;64680;53.800;9.988;2023-02-12T09:35:35;20.65;;;6.78;;
75993;SDS011;64680;53.800;9.988;2023-02-12T09:38:02;27.77;;;8.02;;
75993;SDS011;64680;53.800;9.988;2023-02-12T09:45:57;20.63;;;6.53;;
75993;SDS011;64680;53.800;9.988;2023-02-12T09:51:02;19.77;;;6.90;;
75993;SDS011;64680;53.800;9.988;2023-02-12T09:53:31;19.30;;;6.60;;
75993;SDS011;64680;53.800;9.988;2023-02-12T09:56:02;17.75;;;6.68;;
75993;SDS011;64680;53.800;9.988;2023-02-12T09:58:34;23.05;;;7.55;;
75993;SDS011;64680;53.800;9.988;2023-02-12T10:01:12;29.05;;;8.63;;
75993;SDS011;64680;53.800;9.988;2023-02-12T10:03:41;22.88;;;7.07;;
75993;SDS011;64680;53.800;9.988;2023-02-12T10:06:10;22.20;;;6.97;;
75993;SDS011;64680;53.800;9.988;2023-02-12T10:08:52;26.65;;;7.80;;
75993;SDS011;64680;53.800;9.988;2023-02-12T10:22:30;21.63;;;7.18;;
75993;SDS011;64680;53.800;9.988;2023-02-12T10:28:10;15.02;;;5.82;;
75993;SDS011;64680;53.800;9.988;2023-02-12T10:30:50;20.10;;;6.45;;
75993;SDS011;64680;53.800;9.988;2023-02-12T10:33:32;16.77;;;6.65;;
75993;SDS011;64680;53.800;9.988;2023-02-12T10:39:02;21.27;;;6.38;;
75993;SDS011;64680;53.800;9.988;2023-02-12T10:41:57;13.93;;;5.18;;
75993;SDS011;64680;53.800;9.988;2023-02-12T10:44:25;15.43;;;6.10;;
75993;SDS011;64680;53.800;9.988;2023-02-12T10:46:51;17.88;;;6.95;;
75993;SDS011;64680;53.800;9.988;2023-02-12T10:49:17;12.77;;;5.38;;
75993;SDS011;64680;53.800;9.988;2023-02-12T10:59:41;14.77;;;4.80;;
75993;SDS011;64680;53.800;9.988;2023-02-12T11:04:53;11.55;;;4.75;;
75993;SDS011;64680;53.800;9.988;2023-02-12T11:07:20;16.58;;;6.43;;
75993;SDS011;64680;53.800;9.988;2023-02-12T11:09:48;11.90;;;4.80;;
75993;SDS011;64680;53.800;9.988;2023-02-12T11:14:53;10.05;;;4.03;;
75993;SDS011;64680;53.800;9.988;2023-02-12T11:17:25;9.05;;;3.50;;
75993;SDS011;64680;53.800;9.988;2023-02-12T11:22:49;9.18;;;3.95;;
75993;SDS011;64680;53.800;9.988;2023-02-12T11:25:17;7.13;;;2.92;;
75993;SDS011;64680;53.800;9.988;2023-02-12T11:27:43;8.25;;;3.35;;
75993;SDS011;64680;53.800;9.988;2023-02-12T11:32:37;5.70;;;3.22;;
75993;SDS011;64680;53.800;9.988;2023-02-12T11:35:05;5.78;;;2.80;;
75993;SDS011;64680;53.800;9.988;2023-02-12T11:37:42;5.63;;;2.63;;
75993;SDS011;64680;53.800;9.988;2023-02-12T11:40:16;8.48;;;2.60;;
75993;SDS011;64680;53.800;9.988;2023-02-12T11:42:51;5.78;;;2.10;;
75993;SDS011;64680;53.800;9.988;2023-02-12T11:45:29;4.82;;;2.60;;
75993;SDS011;64680;53.800;9.988;2023-02-12T11:48:18;4.78;;;2.20;;
75993;SDS011;64680;53.800;9.988;2023-02-12T11:50:51;6.60;;;2.42;;
75993;SDS011;64680;53.800;9.988;2023-02-12T11:53:20;6.50;;;1.65;;
75993;SDS011;64680;53.800;9.988;2023-02-12T11:56:02;2.58;;;1.48;;
75993;SDS011;64680;53.800;9.988;2023-02-12T11:58:32;2.35;;;1.25;;
75993;SDS011;64680;53.800;9.988;2023-02-12T12:01:00;3.88;;;1.48;;
75993;SDS011;64680;53.800;9.988;2023-02-12T12:03:38;2.95;;;1.90;;
75993;SDS011;64680;53.800;9.988;2023-02-12T12:06:21;2.22;;;0.93;;
75993;SDS011;64680;53.800;9.988;2023-02-12T12:14:30;2.10;;;0.90;;
75993;SDS011;64680;53.800;9.988;2023-02-12T12:17:21;2.03;;;1.27;;
75993;SDS011;64680;53.800;9.988;2023-02-12T12:20:15;1.75;;;0.63;;
75993;SDS011;64680;53.800;9.988;2023-02-12T12:33:40;1.38;;;0.73;;
75993;SDS011;64680;53.800;9.988;2023-02-12T12:39:16;1.52;;;0.80;;
75993;SDS011;64680;53.800;9.988;2023-02-12T12:45:15;1.20;;;0.85;;
75993;SDS011;64680;53.800;9.988;2023-02-12T12:50:59;1.20;;;0.60;;
75993;SDS011;64680;53.800;9.988;2023-02-12T12:53:29;1.27;;;1.17;;
75993;SDS011;64680;53.800;9.988;2023-02-12T13:02:40;1.00;;;0.50;;
75993;SDS011;64680;53.800;9.988;2023-02-12T13:10:28;0.45;;;0.28;;
75993;SDS011;64680;53.800;9.988;2023-02-12T13:16:28;0.90;;;0.90;;
75993;SDS011;64680;53.800;9.988;2023-02-12T13:19:08;0.80;;;0.40;;
75993;SDS011;64680;53.800;9.988;2023-02-12T13:25:00;0.57;;;0.32;;
75993;SDS011;64680;53.800;9.988;2023-02-12T13:27:40;0.77;;;0.43;;
75993;SDS011;64680;53.800;9.988;2023-02-12T13:32:46;2.00;;;0.63;;
75993;SDS011;64680;53.800;9.988;2023-02-12T13:35:24;2.25;;;0.70;;
75993;SDS011;64680;53.800;9.988;2023-02-12T13:51:43;1.00;;;0.73;;
75993;SDS011;64680;53.800;9.988;2023-02-12T13:57:12;2.17;;;0.90;;
75993;SDS011;64680;53.800;9.988;2023-02-12T13:59:41;1.45;;;0.75;;
75993;SDS011;64680;53.800;9.988;2023-02-12T14:07:08;1.20;;;0.82;;
75993;SDS011;64680;53.800;9.988;2023-02-12T14:09:40;1.90;;;1.13;;
75993;SDS011;64680;53.800;9.988;2023-02-12T14:14:49;2.97;;;1.52;;
75993;SDS011;64680;53.800;9.988;2023-02-12T14:20:22;2.70;;;1.65;;
75993;SDS011;64680;53.800;9.988;2023-02-12T14:33:18;3.30;;;2.60;;
75993;SDS011;64680;53.800;9.988;2023-02-12T14:37:59;7.55;;;4.50;;
75993;SDS011;64680;53.800;9.988;2023-02-12T14:42:59;7.45;;;4.68;;
75993;SDS011;64680;53.800;9.988;2023-02-12T14:45:27;6.07;;;3.78;;
75993;SDS011;64680;53.800;9.988;2023-02-12T14:47:58;7.45;;;4.38;;
75993;SDS011;64680;53.800;9.988;2023-02-12T14:50:25;7.95;;;4.38;;
75993;SDS011;64680;53.800;9.988;2023-02-12T14:52:59;8.75;;;5.47;;
75993;SDS011;64680;53.800;9.988;2023-02-12T14:55:40;8.55;;;4.93;;
75993;SDS011;64680;53.800;9.988;2023-02-12T14:58:21;8.02;;;4.43;;
75993;SDS011;64680;53.800;9.988;2023-02-12T15:00:50;7.40;;;4.05;;
75993;SDS011;64680;53.800;9.988;2023-02-12T15:03:22;8.45;;;4.72;;
75993;SDS011;64680;53.800;9.988;2023-02-12T15:06:03;6.70;;;3.58;;
75993;SDS011;64680;53.800;9.988;2023-02-12T15:08:35;6.47;;;3.85;;
75993;SDS011;64680;53.800;9.988;2023-02-12T15:11:28;7.10;;;3.95;;
75993;SDS011;64680;53.800;9.988;2023-02-12T15:14:25;6.00;;;3.17;;
75993;SDS011;64680;53.800;9.988;2023-02-12T15:20:03;7.40;;;3.65;;
75993;SDS011;64680;53.800;9.988;2023-02-12T15:22:33;8.65;;;3.95;;
75993;SDS011;64680;53.800;9.988;2023-02-12T15:25:19;19.15;;;6.95;;
75993;SDS011;64680;53.800;9.988;2023-02-12T15:27:49;9.40;;;3.97;;
75993;SDS011;64680;53.800;9.988;2023-02-12T15:30:21;7.15;;;3.42;;
75993;SDS011;64680;53.800;9.988;2023-02-12T15:32:49;7.28;;;3.63;;
75993;SDS011;64680;53.800;9.988;2023-02-12T15:35:28;8.70;;;3.92;;
75993;SDS011;64680;53.800;9.988;2023-02-12T15:40:22;7.45;;;3.45;;
75993;SDS011;64680;53.800;9.988;2023-02-12T15:42:52;8.25;;;3.55;;
75993;SDS011;64680;53.800;9.988;2023-02-12T15:45:26;7.20;;;3.80;;
75993;SDS011;64680;53.800;9.988;2023-02-12T15:48:28;8.90;;;4.75;;
75993;SDS011;64680;53.800;9.988;2023-02-12T15:53:17;10.68;;;4.93;;
75993;SDS011;64680;53.800;9.988;2023-02-12T15:55:44;9.77;;;4.55;;
75993;SDS011;64680;53.800;9.988;2023-02-12T15:58:18;9.63;;;4.32;;
75993;SDS011;64680;53.800;9.988;2023-02-12T16:00:50;8.65;;;4.22;;
75993;SDS011;64680;53.800;9.988;2023-02-12T16:03:24;11.23;;;5.00;;
75993;SDS011;64680;53.800;9.988;2023-02-12T16:06:05;10.32;;;4.55;;
75993;SDS011;64680;53.800;9.988;2023-02-12T16:08:42;14.65;;;6.45;;
75993;SDS011;64680;53.800;9.988;2023-02-12T16:11:10;13.80;;;6.20;;
75993;SDS011;64680;53.800;9.988;2023-02-12T16:13:39;10.68;;;5.20;;
75993;SDS011;64680;53.800;9.988;2023-02-12T16:18:36;16.05;;;7.32;;
75993;SDS011;64680;53.800;9.988;2023-02-12T16:21:10;17.15;;;7.93;;
75993;SDS011;64680;53.800;9.988;2023-02-12T16:23:36;14.90;;;6.03;;
75993;SDS011;64680;53.800;9.988;2023-02-12T16:26:02;17.55;;;6.93;;
75993;SDS011;64680;53.800;9.988;2023-02-12T16:28:29;14.95;;;6.45;;
75993;SDS011;64680;53.800;9.988;2023-02-12T16:31:06;18.95;;;8.65;;
75993;SDS011;64680;53.800;9.988;2023-02-12T16:33:34;20.92;;;9.55;;
75993;SDS011;64680;53.800;9.988;2023-02-12T16:44:30;21.73;;;9.00;;
75993;SDS011;64680;53.800;9.988;2023-02-12T16:46:31;29.50;;;10.13;;
75993;SDS011;64680;53.800;9.988;2023-02-12T16:48:58;24.65;;;8.88;;
75993;SDS011;64680;53.800;9.988;2023-02-12T16:51:27;36.10;;;10.40;;
75993;SDS011;64680;53.800;9.988;2023-02-12T16:53:55;21.90;;;8.63;;
75993;SDS011;64680;53.800;9.988;2023-02-12T16:56:24;20.85;;;8.63;;
75993;SDS011;64680;53.800;9.988;2023-02-12T16:58:53;30.63;;;11.02;;
75993;SDS011;64680;53.800;9.988;2023-02-12T17:01:26;31.55;;;10.52;;
75993;SDS011;64680;53.800;9.988;2023-02-12T17:03:54;25.58;;;9.43;;
75993;SDS011;64680;53.800;9.988;2023-02-12T17:06:26;34.53;;;10.15;;
75993;SDS011;64680;53.800;9.988;2023-02-12T17:08:52;21.92;;;9.07;;
75993;SDS011;64680;53.800;9.988;2023-02-12T17:11:19;23.50;;;8.98;;
75993;SDS011;64680;53.800;9.988;2023-02-12T17:13:46;23.30;;;10.20;;
75993;SDS011;64680;53.800;9.988;2023-02-12T17:16:13;22.60;;;9.40;;
75993;SDS011;64680;53.800;9.988;2023-02-12T17:18:39;25.42;;;10.35;;
75993;SDS011;64680;53.800;9.988;2023-02-12T17:21:06;23.23;;;9.88;;
75993;SDS011;64680;53.800;9.988;2023-02-12T17:23:38;20.83;;;9.18;;
75993;SDS011;64680;53.800;9.988;2023-02-12T17:26:05;21.98;;;8.90;;
75993;SDS011;64680;53.800;9.988;2023-02-12T17:28:31;21.60;;;9.30;;
75993;SDS011;64680;53.800;9.988;2023-02-12T17:30:57;23.58;;;9.88;;
75993;SDS011;64680;53.800;9.988;2023-02-12T17:33:26;23.67;;;10.82;;
75993;SDS011;64680;53.800;9.988;2023-02-12T17:35:52;22.08;;;9.15;;
75993;SDS011;64680;53.800;9.988;2023-02-12T17:38:18;28.85;;;11.15;;
75993;SDS011;64680;53.800;9.988;2023-02-12T17:40:43;26.40;;;9.45;;
75993;SDS011;64680;53.800;9.988;2023-02-12T17:43:09;22.10;;;10.52;;
75993;SDS011;64680;53.800;9.988;2023-02-12T17:45:38;22.60;;;10.43;;
75993;SDS011;64680;53.800;9.988;2023-02-12T17:48:07;21.73;;;9.85;;
75993;SDS011;64680;53.800;9.988;2023-02-12T17:50:33;24.50;;;10.13;;
75993;SDS011;64680;53.800;9.988;2023-02-12T17:52:59;25.23;;;10.43;;
75993;SDS011;64680;53.800;9.988;2023-02-12T17:55:25;20.98;;;9.88;;
75993;SDS011;64680;53.800;9.988;2023-02-12T17:57:54;19.55;;;9.50;;
75993;SDS011;64680;53.800;9.988;2023-02-12T18:00:20;30.13;;;11.75;;